Time;durP1;ratioP1;P1;durP2;ratioP2;P2;SDS_P1;SDS_P2;PMS_P1;PMS_P2;Temp;Humidity;BMP_temperature;BMP_pressure;BME280_temperature;BME280_humidity;BME280_pressure;Samples;Min_cycle;Max_cycle;Signal;HPM_P1;HPM_P2
2022/04/10 00:00:43;;;;;;;11.18;2.17;;;3.50;99.90;;;;;;5013189;28;20038;-48
2022/04/10 00:03:10;;;;;;;8.63;1.95;;;3.60;99.90;;;;;;5013685;28;20042;-49
2022/04/10 00:05:35;;;;;;;10.80;2.10;;;3.60;99.90;;;;;;5013771;28;20046;-47
2022/04/10 00:08:01;;;;;;;15.65;2.40;;;3.50;99.90;;;;;;5013950;28;20120;-46
2022/04/10 00:10:27;;;;;;;12.65;1.98;;;3.60;99.90;;;;;;5013395;28;20121;-49
2022/04/10 00:12:52;;;;;;;9.60;2.10;;;3.60;99.90;;;;;;5013939;28;20030;-47
2022/04/10 00:15:18;;;;;;;11.63;2.05;;;3.50;99.90;;;;;;5013398;28;20064;-49
2022/04/10 00:17:44;;;;;;;16.08;2.08;;;3.60;99.90;;;;;;5013252;28;20029;-47
2022/04/10 00:20:11;;;;;;;19.83;2.67;;;3.60;99.90;;;;;;5013592;28;20030;-47
2022/04/10 00:22:45;;;;;;;12.90;2.15;;;3.50;99.90;;;;;;5013457;28;20038;-50
2022/04/10 00:25:12;;;;;;;10.20;2.15;;;3.50;99.90;;;;;;5013429;28;20030;-48
2022/04/10 00:27:40;;;;;;;12.57;2.33;;;3.50;99.90;;;;;;5013571;28;20854;-49
2022/04/10 00:30:06;;;;;;;14.88;2.78;;;3.60;99.90;;;;;;5012627;28;20041;-48
2022/04/10 00:32:32;;;;;;;12.57;2.47;;;3.60;99.90;;;;;;5012955;28;20038;-47
2022/04/10 00:34:58;;;;;;;16.27;2.50;;;3.50;99.90;;;;;;5013196;28;20125;-46
2022/04/10 00:37:25;;;;;;;13.85;1.95;;;3.50;99.90;;;;;;5013430;28;20030;-46
2022/04/10 00:39:51;;;;;;;12.38;1.88;;;3.60;99.90;;;;;;5013309;28;20034;-47
2022/04/10 00:42:17;;;;;;;10.40;2.00;;;3.70;99.90;;;;;;4995363;28;20045;-46
2022/04/10 00:44:42;;;;;;;12.60;2.45;;;3.70;99.90;;;;;;5012558;28;20034;-49
2022/04/10 00:47:10;;;;;;;16.17;2.83;;;3.70;99.90;;;;;;5013063;28;20041;-45
2022/04/10 00:49:36;;;;;;;12.60;2.17;;;3.60;99.90;;;;;;5012892;28;20050;-45
2022/04/10 00:52:06;;;;;;;18.13;2.50;;;3.70;99.90;;;;;;5013090;28;20038;-45
2022/04/10 00:54:34;;;;;;;12.57;2.00;;;3.60;99.90;;;;;;5013006;28;20038;-49
2022/04/10 00:57:01;;;;;;;15.32;2.53;;;3.40;99.90;;;;;;5012593;28;20481;-46
2022/04/10 00:59:28;;;;;;;12.77;2.38;;;3.50;99.90;;;;;;5011510;28;20045;-48
2022/04/10 01:01:54;;;;;;;11.73;2.38;;;3.30;99.90;;;;;;5004399;28;20042;-47
2022/04/10 01:04:19;;;;;;;15.15;2.40;;;3.30;99.90;;;;;;4994507;28;20049;-45
2022/04/10 01:06:50;;;;;;;12.20;2.30;;;3.30;99.90;;;;;;5012093;28;20092;-47
2022/04/10 01:09:17;;;;;;;16.05;2.53;;;3.30;99.90;;;;;;4994377;28;20060;-47
2022/04/10 01:11:43;;;;;;;15.30;2.53;;;3.40;99.90;;;;;;5012215;28;20124;-50
2022/04/10 01:14:09;;;;;;;14.23;2.70;;;3.40;99.90;;;;;;5011713;28;20042;-44
2022/04/10 01:16:35;;;;;;;15.23;2.58;;;3.50;99.90;;;;;;5011671;28;20038;-46
2022/04/10 01:19:03;;;;;;;11.65;2.20;;;3.40;99.90;;;;;;5011944;28;20038;-46
2022/04/10 01:21:32;;;;;;;15.27;2.42;;;3.30;99.90;;;;;;5012307;28;20045;-48
2022/04/10 01:23:58;;;;;;;16.50;2.58;;;3.40;99.90;;;;;;5012225;28;20041;-45
2022/04/10 01:26:27;;;;;;;15.20;2.58;;;3.40;99.90;;;;;;5011918;28;20052;-46
2022/04/10 01:28:57;;;;;;;15.18;2.45;;;3.40;99.90;;;;;;5008296;28;20037;-49
2022/04/10 01:31:22;;;;;;;16.17;2.47;;;3.30;99.90;;;;;;5012236;28;20038;-47
2022/04/10 01:33:49;;;;;;;17.08;2.60;;;3.40;99.90;;;;;;5012480;28;20041;-47
2022/04/10 01:36:15;;;;;;;15.32;2.78;;;3.40;99.90;;;;;;5011797;28;20069;-49
2022/04/10 01:38:44;;;;;;;17.58;2.45;;;3.50;99.90;;;;;;5012329;28;20046;-49
2022/04/10 01:41:15;;;;;;;12.85;2.58;;;3.50;99.90;;;;;;5012245;28;20030;-48
2022/04/10 01:43:46;;;;;;;16.00;2.83;;;3.50;99.90;;;;;;5011055;28;20097;-46
2022/04/10 01:46:15;;;;;;;13.60;2.10;;;3.50;99.90;;;;;;5012189;28;20133;-44
2022/04/10 01:48:41;;;;;;;15.48;2.22;;;3.50;99.90;;;;;;5003417;28;20104;-44
2022/04/10 01:51:07;;;;;;;12.40;2.63;;;3.50;99.90;;;;;;5011504;28;20042;-44
2022/04/10 01:53:34;;;;;;;11.75;2.35;;;3.60;99.90;;;;;;5011724;28;20038;-46
2022/04/10 01:56:01;;;;;;;15.32;2.15;;;3.60;99.90;;;;;;5011921;28;20037;-49
2022/04/10 01:58:26;;;;;;;13.90;2.88;;;3.60;99.90;;;;;;5011389;28;20034;-47
2022/04/10 02:00:52;;;;;;;13.15;2.30;;;3.60;99.90;;;;;;5011502;28;20427;-46
2022/04/10 02:03:18;;;;;;;12.77;2.50;;;3.60;99.90;;;;;;5011726;28;20054;-48
2022/04/10 02:05:43;;;;;;;15.93;2.47;;;3.80;99.90;;;;;;5011775;28;20038;-48
2022/04/10 02:08:09;;;;;;;13.38;2.22;;;3.80;99.90;;;;;;5010681;28;20414;-46
2022/04/10 02:10:34;;;;;;;13.13;2.65;;;3.90;99.90;;;;;;5011552;28;20482;-46
2022/04/10 02:13:00;;;;;;;9.88;2.05;;;3.90;99.90;;;;;;5011480;28;20128;-46
2022/04/10 02:15:26;;;;;;;15.63;2.72;;;3.90;99.90;;;;;;5011188;28;20496;-48
2022/04/10 02:17:52;;;;;;;21.08;2.70;;;3.90;99.90;;;;;;5011031;28;20041;-46
2022/04/10 02:20:17;;;;;;;10.13;2.70;;;3.90;99.90;;;;;;5008344;28;20049;-44
2022/04/10 02:22:43;;;;;;;14.32;2.58;;;3.90;99.90;;;;;;5011004;28;20532;-48
2022/04/10 02:25:09;;;;;;;14.63;2.45;;;3.90;99.90;;;;;;5011373;28;20088;-47
2022/04/10 02:27:35;;;;;;;17.95;2.83;;;3.80;99.90;;;;;;5011386;28;20033;-45
2022/04/10 02:30:01;;;;;;;12.63;2.47;;;3.80;99.90;;;;;;5011317;28;20476;-46
2022/04/10 02:32:29;;;;;;;14.15;2.45;;;3.70;99.90;;;;;;4993246;28;20038;-47
2022/04/10 02:34:54;;;;;;;15.60;3.00;;;3.70;99.90;;;;;;5010873;28;20045;-44
2022/04/10 02:37:20;;;;;;;14.02;2.03;;;3.70;99.90;;;;;;5011160;28;20034;-46
2022/04/10 02:39:46;;;;;;;11.57;2.17;;;3.70;99.90;;;;;;5011072;28;20030;-46
2022/04/10 02:42:11;;;;;;;11.15;2.35;;;3.80;99.90;;;;;;5011261;28;20038;-47
2022/04/10 02:44:38;;;;;;;9.48;2.33;;;3.90;99.90;;;;;;5010368;28;20046;-46
2022/04/10 02:47:04;;;;;;;9.55;2.00;;;3.90;99.90;;;;;;5011014;28;20504;-46
2022/04/10 02:49:29;;;;;;;13.63;1.92;;;3.80;99.90;;;;;;5010340;28;20054;-47
2022/04/10 02:51:55;;;;;;;10.77;2.22;;;3.90;99.90;;;;;;5010860;28;20049;-48
2022/04/10 02:54:21;;;;;;;11.73;2.15;;;3.80;99.90;;;;;;5010930;28;20155;-47
2022/04/10 02:56:46;;;;;;;14.00;1.80;;;3.70;99.90;;;;;;5010686;28;20041;-46
2022/04/10 02:59:12;;;;;;;12.30;2.13;;;3.70;99.90;;;;;;5010833;28;20457;-48
2022/04/10 03:01:38;;;;;;;12.77;2.30;;;3.60;99.90;;;;;;5010740;28;20709;-47
2022/04/10 03:04:04;;;;;;;15.20;2.17;;;3.60;99.90;;;;;;5010969;28;20377;-48
2022/04/10 03:06:29;;;;;;;10.52;1.90;;;3.60;99.90;;;;;;5010612;28;20120;-47
2022/04/10 03:08:55;;;;;;;12.43;2.08;;;3.60;99.90;;;;;;5010950;28;20178;-47
2022/04/10 03:11:21;;;;;;;7.47;1.80;;;3.70;99.90;;;;;;5010437;28;20053;-48
2022/04/10 03:13:46;;;;;;;14.55;2.30;;;3.70;99.90;;;;;;4992514;28;20037;-48
2022/04/10 03:16:12;;;;;;;9.85;1.90;;;3.70;99.90;;;;;;5010652;28;20128;-48
2022/04/10 03:18:38;;;;;;;9.95;1.70;;;3.60;99.90;;;;;;5010387;28;20818;-49
2022/04/10 03:21:04;;;;;;;11.13;1.88;;;3.70;99.90;;;;;;5010773;28;20037;-49
2022/04/10 03:23:30;;;;;;;8.32;1.63;;;3.60;99.90;;;;;;5010517;28;20057;-48
2022/04/10 03:25:55;;;;;;;8.40;1.55;;;3.60;99.90;;;;;;5010557;28;20385;-47
2022/04/10 03:28:21;;;;;;;10.52;1.88;;;3.60;99.90;;;;;;5010646;28;20116;-46
2022/04/10 03:30:47;;;;;;;9.85;1.70;;;3.40;99.90;;;;;;5010109;28;20042;-46
2022/04/10 03:33:14;;;;;;;9.32;1.83;;;3.40;99.90;;;;;;5008955;28;20539;-48
2022/04/10 03:35:39;;;;;;;12.25;1.60;;;3.40;99.90;;;;;;5010560;28;20066;-48
2022/04/10 03:38:05;;;;;;;8.63;1.88;;;3.30;99.90;;;;;;5010249;28;20065;-47
2022/04/10 03:40:31;;;;;;;8.23;1.63;;;3.30;99.90;;;;;;5010468;28;20042;-47
2022/04/10 03:42:56;;;;;;;7.75;2.05;;;3.20;99.90;;;;;;5010007;28;20481;-48
2022/04/10 03:45:22;;;;;;;9.70;1.70;;;3.10;99.90;;;;;;5009802;28;20030;-47
2022/04/10 03:47:48;;;;;;;9.57;2.22;;;3.10;99.90;;;;;;5009957;28;20049;-47
2022/04/10 03:50:15;;;;;;;11.15;2.33;;;3.20;99.90;;;;;;5010237;28;20073;-44
2022/04/10 03:52:40;;;;;;;10.18;2.28;;;3.20;99.90;;;;;;5010112;28;20758;-49
2022/04/10 03:55:06;;;;;;;12.30;1.95;;;3.30;99.90;;;;;;5010188;28;20038;-49
2022/04/10 03:57:32;;;;;;;8.63;1.80;;;3.20;99.90;;;;;;4992101;28;20727;-48
2022/04/10 03:59:58;;;;;;;9.63;2.05;;;3.40;99.90;;;;;;5009965;28;20070;-46
2022/04/10 04:02:23;;;;;;;11.77;2.50;;;3.30;99.90;;;;;;5010134;28;20456;-47
2022/04/10 04:04:50;;;;;;;11.38;2.10;;;3.50;99.90;;;;;;5010142;28;20042;-48
2022/04/10 04:07:17;;;;;;;13.60;2.08;;;3.60;99.90;;;;;;5010117;28;20565;-45
2022/04/10 04:09:42;;;;;;;10.50;1.73;;;3.60;99.90;;;;;;5009862;28;20073;-47
2022/04/10 04:12:08;;;;;;;10.68;2.10;;;3.60;99.90;;;;;;5009872;28;20084;-44
2022/04/10 04:14:37;;;;;;;13.52;2.08;;;3.70;99.90;;;;;;5009613;28;20038;-47
2022/04/10 04:17:03;;;;;;;5.50;1.33;;;3.70;99.90;;;;;;5009547;28;20457;-47
2022/04/10 04:19:29;;;;;;;7.47;1.50;;;3.60;99.90;;;;;;4992494;28;20509;-46
2022/04/10 04:21:55;;;;;;;7.47;1.40;;;3.50;99.90;;;;;;5009917;28;20072;-47
2022/04/10 04:24:20;;;;;;;12.55;1.58;;;3.50;99.90;;;;;;5009902;28;20095;-47
2022/04/10 04:26:46;;;;;;;10.40;2.10;;;3.50;99.90;;;;;;5010024;28;20041;-49
2022/04/10 04:29:12;;;;;;;9.98;1.80;;;3.50;99.90;;;;;;5009976;28;20112;-48
2022/04/10 04:31:38;;;;;;;11.48;1.73;;;3.50;99.90;;;;;;5012225;28;20481;-47
2022/04/10 04:34:03;;;;;;;9.90;1.58;;;3.40;99.90;;;;;;5013028;28;20030;-47
2022/04/10 04:36:31;;;;;;;7.32;1.80;;;3.60;99.90;;;;;;5013423;28;20037;-48
2022/04/10 04:38:57;;;;;;;9.48;1.70;;;3.50;99.90;;;;;;5013205;28;20061;-45
2022/04/10 04:41:23;;;;;;;5.07;1.38;;;3.50;99.90;;;;;;5013409;28;20052;-47
2022/04/10 04:43:49;;;;;;;5.43;1.42;;;3.40;99.90;;;;;;4994775;28;20049;-46
2022/04/10 04:46:15;;;;;;;10.63;1.65;;;3.20;99.90;;;;;;5013283;28;20042;-48
2022/04/10 04:48:40;;;;;;;9.30;1.73;;;3.20;99.90;;;;;;5012113;28;20050;-47
2022/04/10 04:51:06;;;;;;;5.30;1.27;;;3.20;99.90;;;;;;5013028;28;20050;-48
2022/04/10 04:53:32;;;;;;;5.18;1.40;;;3.10;99.90;;;;;;5013088;28;20036;-45
2022/04/10 04:55:57;;;;;;;8.07;1.30;;;3.10;99.90;;;;;;5012914;28;20474;-45
2022/04/10 04:58:23;;;;;;;6.85;1.30;;;3.20;99.90;;;;;;4989113;28;20787;-45
2022/04/10 05:00:49;;;;;;;7.25;2.25;;;3.30;99.90;;;;;;5006895;28;20457;-46
2022/04/10 05:03:16;;;;;;;6.63;1.30;;;3.20;99.90;;;;;;5003527;28;20400;-48
2022/04/10 05:05:42;;;;;;;6.30;1.23;;;3.20;99.90;;;;;;5007802;28;20053;-48
2022/04/10 05:08:07;;;;;;;6.85;1.35;;;3.10;99.90;;;;;;5009393;28;20385;-46
2022/04/10 05:10:33;;;;;;;4.80;1.27;;;3.10;99.90;;;;;;4993150;28;20041;-47
2022/04/10 05:12:58;;;;;;;4.38;1.33;;;3.20;99.90;;;;;;5010822;28;20037;-46
2022/04/10 05:15:24;;;;;;;6.35;1.25;;;3.20;99.90;;;;;;4991351;28;20520;-47
2022/04/10 05:17:51;;;;;;;5.82;1.33;;;3.20;99.90;;;;;;4989450;28;20077;-48
2022/04/10 05:20:17;;;;;;;4.80;1.05;;;3.20;99.90;;;;;;5010467;28;20049;-48
2022/04/10 05:22:43;;;;;;;4.00;1.00;;;3.20;99.90;;;;;;5010927;28;20042;-47
2022/04/10 05:25:09;;;;;;;6.28;1.30;;;3.20;99.90;;;;;;5009601;28;20076;-45
2022/04/10 05:27:35;;;;;;;6.60;1.33;;;3.30;99.90;;;;;;5010684;28;20120;-49
2022/04/10 05:30:01;;;;;;;7.55;1.30;;;3.30;99.90;;;;;;5010166;28;20509;-48
2022/04/10 05:32:26;;;;;;;5.25;1.30;;;3.40;99.90;;;;;;5009216;28;20374;-48
2022/04/10 05:34:52;;;;;;;5.93;1.65;;;3.30;99.90;;;;;;5010327;28;20041;-44
2022/04/10 05:37:18;;;;;;;10.48;1.67;;;3.40;99.90;;;;;;5010061;28;20594;-45
2022/04/10 05:39:43;;;;;;;6.03;1.27;;;3.30;99.90;;;;;;5008371;28;20141;-45
2022/04/10 05:42:09;;;;;;;6.07;1.45;;;3.30;99.90;;;;;;5010318;28;20485;-45
2022/04/10 05:44:35;;;;;;;4.63;1.00;;;3.40;99.90;;;;;;5007706;28;20040;-45
2022/04/10 05:47:01;;;;;;;6.78;1.20;;;3.50;99.90;;;;;;5009671;28;20196;-48
2022/04/10 05:49:27;;;;;;;5.90;1.30;;;3.40;99.90;;;;;;5009050;28;20054;-47
2022/04/10 05:51:53;;;;;;;6.93;1.30;;;3.40;99.90;;;;;;5007680;28;20060;-47
2022/04/10 05:54:18;;;;;;;4.45;1.00;;;3.40;99.90;;;;;;4989516;28;20503;-45
2022/04/10 05:56:44;;;;;;;5.90;1.02;;;3.50;99.90;;;;;;5008815;28;20030;-48
2022/04/10 05:59:10;;;;;;;4.97;1.40;;;3.40;99.90;;;;;;5008733;28;20058;-47
2022/04/10 06:01:35;;;;;;;7.13;1.30;;;3.40;99.90;;;;;;5008588;28;20037;-48
2022/04/10 06:04:01;;;;;;;6.75;1.30;;;3.50;99.90;;;;;;5009182;28;20038;-46
2022/04/10 06:06:27;;;;;;;3.13;1.13;;;3.40;99.90;;;;;;5006832;28;20045;-45
2022/04/10 06:08:52;;;;;;;6.95;1.38;;;3.40;99.90;;;;;;5008614;28;20042;-48
2022/04/10 06:11:18;;;;;;;4.65;1.30;;;3.40;99.90;;;;;;5009439;28;20501;-49
2022/04/10 06:13:44;;;;;;;6.30;1.30;;;3.70;99.90;;;;;;5003228;28;20482;-46
2022/04/10 06:16:09;;;;;;;5.00;1.23;;;3.70;99.90;;;;;;5000453;28;20038;-45
2022/04/10 06:18:35;;;;;;;7.07;1.30;;;3.90;99.90;;;;;;5005482;28;20121;-48
2022/04/10 06:21:01;;;;;;;4.32;1.08;;;3.90;99.90;;;;;;5005161;28;20136;-45
2022/04/10 06:23:27;;;;;;;5.85;1.10;;;3.80;99.90;;;;;;5002325;28;20038;-47
2022/04/10 06:25:53;;;;;;;5.47;1.10;;;3.70;99.90;;;;;;5004266;28;20068;-45
2022/04/10 06:28:19;;;;;;;6.22;1.08;;;3.70;99.90;;;;;;5006760;28;20049;-45
2022/04/10 06:30:45;;;;;;;5.55;1.05;;;3.70;99.90;;;;;;5002254;28;20519;-47
2022/04/10 06:33:14;;;;;;;5.70;1.00;;;3.70;99.90;;;;;;5000676;28;20117;-48
2022/04/10 06:35:40;;;;;;;4.78;0.90;;;3.60;99.90;;;;;;4984923;28;20045;-47
2022/04/10 06:38:06;;;;;;;5.68;1.20;;;3.60;99.90;;;;;;5008425;28;20559;-45
2022/04/10 06:40:32;;;;;;;3.33;1.10;;;3.70;99.90;;;;;;5009570;28;20033;-46
2022/04/10 06:42:57;;;;;;;8.40;1.13;;;3.70;99.90;;;;;;5009417;28;20034;-46
2022/04/10 06:45:23;;;;;;;3.67;1.10;;;4.10;99.90;;;;;;5009535;28;20065;-49
2022/04/10 06:47:49;;;;;;;4.32;1.00;;;4.10;99.90;;;;;;5008744;28;20045;-50
2022/04/10 06:50:15;;;;;;;7.97;1.30;;;4.10;99.90;;;;;;5009994;28;20404;-46
2022/04/10 06:52:40;;;;;;;4.57;1.10;;;4.10;99.90;;;;;;5010126;28;20050;-47
2022/04/10 06:55:06;;;;;;;4.40;1.10;;;4.20;99.90;;;;;;5010077;28;20041;-47
2022/04/10 06:57:32;;;;;;;4.03;1.48;;;4.30;99.90;;;;;;4992613;28;20053;-46
2022/04/10 06:59:58;;;;;;;6.35;1.30;;;4.20;99.90;;;;;;5009936;28;20038;-45
2022/04/10 07:02:23;;;;;;;5.18;1.27;;;4.30;99.90;;;;;;5010085;28;20092;-48
2022/04/10 07:04:49;;;;;;;3.70;1.27;;;4.30;99.90;;;;;;5010494;28;20034;-45
2022/04/10 07:07:15;;;;;;;6.22;1.70;;;4.40;99.90;;;;;;5009836;28;20196;-47
2022/04/10 07:09:40;;;;;;;5.47;1.60;;;4.70;99.90;;;;;;5008016;28;20053;-45
2022/04/10 07:12:06;;;;;;;5.50;1.35;;;4.60;99.90;;;;;;5008520;28;20041;-47
2022/04/10 07:14:32;;;;;;;5.65;1.15;;;4.60;99.90;;;;;;4991217;28;20409;-47
2022/04/10 07:16:58;;;;;;;8.30;1.40;;;4.70;99.90;;;;;;5009726;28;20056;-48
2022/04/10 07:19:23;;;;;;;6.18;1.10;;;4.80;99.90;;;;;;5010075;28;20389;-47
2022/04/10 07:24:34;;;;;;;5.45;1.33;;;5.10;99.90;;;;;;5009708;28;20084;-46
2022/04/10 07:27:00;;;;;;;8.65;1.52;;;5.10;99.90;;;;;;5009531;28;20107;-47
2022/04/10 07:29:26;;;;;;;5.40;1.17;;;5.30;99.90;;;;;;5009853;28;20034;-46
2022/04/10 07:31:52;;;;;;;4.50;1.20;;;5.40;99.90;;;;;;5009732;28;20038;-46
2022/04/10 07:34:17;;;;;;;6.13;1.30;;;5.50;99.90;;;;;;5009931;28;20064;-46
2022/04/10 07:36:43;;;;;;;6.18;1.35;;;5.50;99.90;;;;;;5009222;28;20034;-48
2022/04/10 07:39:09;;;;;;;7.68;1.38;;;5.60;99.90;;;;;;5010033;28;20073;-48
2022/04/10 07:41:34;;;;;;;6.78;1.20;;;5.70;99.90;;;;;;5009329;28;20041;-45
2022/04/10 07:44:00;;;;;;;9.68;1.38;;;5.70;99.90;;;;;;5008323;28;20120;-47
2022/04/10 07:49:10;;;;;;;8.48;1.50;;;5.90;99.90;;;;;;5008162;28;20139;-46
2022/04/10 07:51:36;;;;;;;8.60;1.40;;;6.00;99.90;;;;;;5009315;28;20474;-49
2022/04/10 07:54:02;;;;;;;10.25;1.50;;;6.20;99.90;;;;;;5009790;28;20029;-50
2022/04/10 07:56:28;;;;;;;7.47;1.30;;;6.40;99.90;;;;;;5009624;28;20496;-49
2022/04/10 07:58:53;;;;;;;8.45;1.73;;;6.40;99.90;;;;;;4975630;28;20042;-46
2022/04/10 08:01:19;;;;;;;7.22;1.60;;;6.50;99.90;;;;;;5007873;28;20424;-51
2022/04/10 08:03:51;;;;;;;8.07;1.48;;;6.50;99.90;;;;;;5008328;28;20416;-47
2022/04/10 08:06:17;;;;;;;6.20;1.58;;;6.60;99.90;;;;;;5008412;28;20053;-46
2022/04/10 08:08:43;;;;;;;5.43;1.55;;;6.50;99.90;;;;;;5008870;28;20093;-45
2022/04/10 08:11:08;;;;;;;10.88;1.95;;;6.50;99.90;;;;;;5013715;28;20042;-47
2022/04/10 08:13:34;;;;;;;6.25;1.48;;;6.10;99.90;;;;;;5013472;28;20092;-50
2022/04/10 08:16:01;;;;;;;8.57;1.73;;;6.00;99.90;;;;;;5013429;28;20042;-46
2022/04/10 08:18:27;;;;;;;7.38;1.50;;;6.00;99.90;;;;;;5013481;28;20070;-46
2022/04/10 08:20:53;;;;;;;12.23;2.45;;;6.00;99.90;;;;;;5013685;28;20444;-49
2022/04/10 08:23:18;;;;;;;10.35;1.73;;;6.00;99.90;;;;;;5013647;28;20485;-50
2022/04/10 08:25:44;;;;;;;13.02;2.00;;;6.10;99.90;;;;;;4996182;28;20033;-47
2022/04/10 08:28:09;;;;;;;10.60;1.80;;;6.20;99.90;;;;;;5013278;28;20084;-48
2022/04/10 08:30:35;;;;;;;14.43;1.85;;;6.40;99.90;;;;;;5012229;28;20038;-48
2022/04/10 08:33:01;;;;;;;8.90;1.83;;;6.50;99.90;;;;;;5013357;28;20108;-48
2022/04/10 08:35:27;;;;;;;5.90;1.42;;;6.60;99.90;;;;;;5013539;28;20065;-48
2022/04/10 08:37:53;;;;;;;9.95;2.17;;;6.50;99.90;;;;;;5013282;28;20092;-50
2022/04/10 08:40:19;;;;;;;7.13;1.77;;;6.50;99.90;;;;;;5013234;28;20038;-49
2022/04/10 08:42:45;;;;;;;9.60;1.42;;;6.40;99.90;;;;;;4995470;28;20480;-51
2022/04/10 08:45:11;;;;;;;8.13;1.60;;;6.50;99.90;;;;;;5012874;28;20042;-49
2022/04/10 08:47:39;;;;;;;7.75;1.58;;;6.70;99.90;;;;;;5012928;28;20050;-48
2022/04/10 08:50:06;;;;;;;9.88;1.83;;;6.90;99.90;;;;;;5013248;28;20049;-45
2022/04/10 08:52:31;;;;;;;7.03;1.58;;;7.00;99.90;;;;;;5013062;28;20112;-47
2022/04/10 08:54:57;;;;;;;8.65;1.45;;;7.20;99.90;;;;;;5012836;28;20486;-45
2022/04/10 08:57:23;;;;;;;7.47;1.17;;;7.40;99.90;;;;;;5012962;28;20034;-48
2022/04/10 08:59:48;;;;;;;5.80;1.05;;;7.70;99.90;;;;;;5013071;28;20477;-47
2022/04/10 09:02:14;;;;;;;10.18;1.48;;;7.40;99.90;;;;;;5012754;28;20053;-48
2022/04/10 09:04:40;;;;;;;6.53;1.50;;;7.30;99.90;;;;;;5012617;28;20481;-48
2022/04/10 09:07:10;;;;;;;8.73;1.52;;;7.00;99.90;;;;;;5013074;28;20382;-48
2022/04/10 09:09:40;;;;;;;11.10;1.70;;;6.80;99.90;;;;;;5012733;28;20405;-51
2022/04/10 09:12:06;;;;;;;10.80;1.60;;;6.80;99.90;;;;;;5004292;28;20045;-48
2022/04/10 09:14:37;;;;;;;10.50;1.90;;;6.90;99.90;;;;;;5010845;28;20053;-46
2022/04/10 09:17:15;;;;;;;7.95;1.42;;;7.30;99.90;;;;;;5010722;28;20042;-49
2022/04/10 09:19:43;;;;;;;8.30;1.40;;;7.70;99.90;;;;;;5011429;28;20042;-47
2022/04/10 09:22:37;;;;;;;10.85;1.27;;;7.70;99.90;;;;;;5012462;28;20038;-48
2022/04/10 09:25:17;;;;;;;6.75;1.70;;;7.50;99.90;;;;;;5012705;28;20045;-49
2022/04/10 09:27:50;;;;;;;9.80;1.45;;;7.20;99.90;;;;;;5012452;28;20037;-47
2022/04/10 09:30:20;;;;;;;8.68;1.58;;;7.40;99.90;;;;;;5011672;28;20042;-48
2022/04/10 09:32:48;;;;;;;9.75;1.80;;;7.60;99.90;;;;;;5011816;28;20053;-50
2022/04/10 09:35:22;;;;;;;8.35;1.60;;;7.80;99.90;;;;;;5010988;28;20141;-48
2022/04/10 09:37:53;;;;;;;6.82;1.20;;;8.00;99.90;;;;;;5010871;28;20446;-48
2022/04/10 09:40:25;;;;;;;9.70;1.38;;;8.20;99.90;;;;;;5011116;28;20563;-47
2022/04/10 09:42:59;;;;;;;7.72;1.25;;;8.50;99.90;;;;;;5010541;28;20046;-46
2022/04/10 09:45:25;;;;;;;;;;;8.40;99.90;;;;;;5011118;28;20046;-50
2022/04/10 09:47:51;;;;;;;7.57;1.48;;;8.50;99.90;;;;;;5011498;28;19925;-51
2022/04/10 09:50:17;;;;;;;6.25;1.33;;;8.80;99.90;;;;;;5009188;28;20515;-48
2022/04/10 09:52:42;;;;;;;9.63;1.30;;;8.60;99.90;;;;;;5003798;28;20053;-47
2022/04/10 09:55:35;;;;;;;9.15;1.58;;;8.40;99.90;;;;;;5007925;28;20034;-49
2022/04/10 09:58:05;;;;;;;10.63;1.75;;;8.20;99.90;;;;;;5006467;28;20034;-49
2022/04/10 10:00:31;;;;;;;6.00;1.33;;;7.90;99.90;;;;;;5011723;28;20042;-49
2022/04/10 10:02:57;;;;;;;8.85;1.10;;;8.60;99.90;;;;;;5009499;28;20033;-46
2022/04/10 10:05:23;;;;;;;7.40;1.60;;;8.50;99.90;;;;;;5008608;28;20045;-45
2022/04/10 10:07:49;;;;;;;7.82;1.80;;;8.50;99.90;;;;;;4971502;28;20049;-47
2022/04/10 10:10:19;;;;;;;6.85;1.73;;;8.40;99.90;;;;;;5004990;28;20053;-48
2022/04/10 10:12:46;;;;;;;9.90;1.45;;;8.30;99.90;;;;;;5007703;28;20046;-48
2022/04/10 10:15:12;;;;;;;7.78;1.42;;;8.50;99.90;;;;;;5008693;28;20045;-51
2022/04/10 10:17:38;;;;;;;7.90;1.48;;;8.70;99.90;;;;;;5009629;28;20128;-52
2022/04/10 10:20:06;;;;;;;6.35;1.30;;;8.80;99.90;;;;;;5010319;28;20037;-49
2022/04/10 10:22:31;;;;;;;7.82;1.50;;;8.40;99.90;;;;;;5010482;28;20045;-46
2022/04/10 10:25:09;;;;;;;7.53;1.23;;;8.40;99.90;;;;;;4995406;28;20045;-47
2022/04/10 10:28:06;;;;;;;4.95;1.20;;;8.20;99.90;;;;;;5010101;28;20053;-45
2022/04/10 10:30:48;;;;;;;7.63;1.30;;;8.10;99.90;;;;;;5010113;28;20045;-51
2022/04/10 10:33:16;;;;;;;5.88;1.40;;;8.50;99.90;;;;;;5009786;28;20469;-49
2022/04/10 10:35:44;;;;;;;4.00;1.00;;;8.60;99.90;;;;;;5010738;28;21386;-50
2022/04/10 10:38:22;;;;;;;6.28;1.25;;;8.70;99.90;;;;;;5010163;28;20370;-49
2022/04/10 10:40:50;;;;;;;8.75;1.15;;;8.90;99.90;;;;;;5010329;28;20042;-49
2022/04/10 10:43:22;;;;;;;7.53;1.40;;;8.80;99.90;;;;;;5002728;28;20092;-47
2022/04/10 10:45:52;;;;;;;9.02;1.80;;;9.00;99.90;;;;;;5000884;28;20092;-51
2022/04/10 10:48:37;;;;;;;6.85;1.35;;;9.30;99.90;;;;;;5005206;28;20054;-47
2022/04/10 10:51:24;;;;;;;5.47;1.00;;;9.40;99.90;;;;;;5008533;28;20042;-48
2022/04/10 10:53:57;;;;;;;9.25;1.38;;;9.40;99.90;;;;;;4992441;28;20064;-48
2022/04/10 10:56:30;;;;;;;6.60;1.30;;;9.30;99.90;;;;;;5009300;28;20030;-50
2022/04/10 10:59:16;;;;;;;5.60;1.42;;;9.70;99.90;;;;;;5007739;28;20057;-49
2022/04/10 11:02:00;;;;;;;8.85;1.55;;;9.80;99.90;;;;;;5005324;28;20046;-50
2022/04/10 11:04:28;;;;;;;4.80;1.00;;;10.00;99.90;;;;;;5007702;28;20531;-47
2022/04/10 11:06:54;;;;;;;4.40;1.00;;;9.80;99.90;;;;;;5008146;28;20042;-46
2022/04/10 11:09:27;;;;;;;8.95;1.10;;;9.40;99.90;;;;;;5008030;28;20077;-47
2022/04/10 11:11:55;;;;;;;4.50;0.98;;;9.20;99.90;;;;;;5008498;28;20068;-51
2022/04/10 11:14:56;;;;;;;5.00;1.08;;;9.30;99.90;;;;;;5008039;28;20740;-50
2022/04/10 11:17:32;;;;;;;6.85;1.10;;;9.70;99.90;;;;;;4997409;28;20057;-48
2022/04/10 11:20:04;;;;;;;6.13;1.40;;;9.80;99.90;;;;;;5008853;28;20033;-50
2022/04/10 11:22:46;;;;;;;6.65;1.17;;;9.50;99.90;;;;;;5008615;28;20137;-50
2022/04/10 11:25:12;;;;;;;6.07;0.82;;;9.60;99.90;;;;;;5009152;28;20528;-48
2022/04/10 11:27:48;;;;;;;8.45;1.20;;;9.20;99.90;;;;;;5010614;28;20137;-48
2022/04/10 11:30:19;;;;;;;9.57;1.15;;;9.30;99.90;;;;;;5010588;28;20607;-47
2022/04/10 11:32:49;;;;;;;7.32;1.33;;;9.50;99.90;;;;;;5010340;28;20053;-51
2022/04/10 11:35:28;;;;;;;5.95;1.17;;;9.60;99.90;;;;;;5010337;28;20044;-49
2022/04/10 11:38:15;;;;;;;7.93;1.27;;;10.10;99.90;;;;;;5010524;28;20038;-49
2022/04/10 11:40:49;;;;;;;5.90;1.00;;;10.50;99.90;;;;;;5013583;28;20397;-52
2022/04/10 11:43:16;;;;;;;4.90;0.90;;;10.60;99.90;;;;;;5013052;28;20042;-46
2022/04/10 11:45:44;;;;;;;7.07;1.40;;;10.90;99.90;;;;;;5013523;28;20125;-50
2022/04/10 11:48:10;;;;;;;10.43;1.48;;;10.70;99.90;;;;;;5014007;28;20038;-48
2022/04/10 11:50:37;;;;;;;7.40;1.50;;;10.70;99.90;;;;;;5014285;28;20044;-49
2022/04/10 11:53:11;;;;;;;6.15;1.27;;;10.40;99.90;;;;;;5008939;28;20135;-49
2022/04/10 11:55:42;;;;;;;5.20;1.20;;;10.00;99.90;;;;;;5008462;28;20057;-48
2022/04/10 11:58:19;;;;;;;6.25;1.08;;;10.20;99.90;;;;;;4991308;28;20524;-48
2022/04/10 12:01:12;;;;;;;4.63;1.00;;;10.40;99.90;;;;;;5005005;28;20042;-48
2022/04/10 12:03:43;;;;;;;7.90;0.93;;;10.60;99.90;;;;;;5008277;28;20045;-51
2022/04/10 12:06:18;;;;;;;6.43;1.05;;;10.60;99.90;;;;;;5014233;28;20045;-47
2022/04/10 12:08:45;;;;;;;3.88;0.95;;;10.60;99.90;;;;;;5013739;28;20037;-50
2022/04/10 12:11:11;;;;;;;9.88;1.70;;;10.80;99.90;;;;;;5013744;28;20054;-49
2022/04/10 12:13:39;;;;;;;8.95;1.38;;;10.90;99.90;;;;;;4979708;28;20056;-51
2022/04/10 12:16:11;;;;;;;8.88;1.33;;;10.80;99.90;;;;;;5013228;28;20042;-48
2022/04/10 12:18:53;;;;;;;9.07;1.15;;;10.80;99.90;;;;;;5013940;28;20038;-49
2022/04/10 12:21:20;;;;;;;5.93;1.45;;;10.90;99.90;;;;;;5013410;28;20049;-47
2022/04/10 12:23:46;;;;;;;5.70;1.02;;;11.10;99.90;;;;;;5013956;28;20096;-49
2022/04/10 12:26:13;;;;;;;5.57;1.20;;;11.10;99.90;;;;;;5012536;28;20034;-48
2022/04/10 12:28:42;;;;;;;12.13;1.33;;;11.10;99.90;;;;;;4995878;28;20049;-49
2022/04/10 12:31:08;;;;;;;7.25;1.23;;;10.90;99.90;;;;;;5013388;28;20034;-47
2022/04/10 12:33:35;;;;;;;6.63;1.45;;;11.10;99.90;;;;;;5013729;28;20092;-50
2022/04/10 12:36:21;;;;;;;5.82;1.20;;;11.30;99.90;;;;;;5013727;28;20501;-46
2022/04/10 12:38:52;;;;;;;5.43;1.20;;;11.60;99.90;;;;;;5013735;28;20066;-49
2022/04/10 12:41:27;;;;;;;6.80;1.30;;;12.00;99.90;;;;;;5012898;28;20077;-50
2022/04/10 12:44:06;;;;;;;7.30;1.05;;;11.70;99.70;;;;;;5013476;28;20076;-49
2022/04/10 12:46:36;;;;;;;4.13;0.90;;;11.70;98.80;;;;;;5012623;28;20076;-46
2022/04/10 12:49:13;;;;;;;7.72;1.02;;;11.50;98.00;;;;;;5000056;28;20453;-49
2022/04/10 12:51:54;;;;;;;3.58;0.90;;;11.50;97.00;;;;;;4992506;28;20038;-49
2022/04/10 12:54:34;;;;;;;4.93;0.95;;;11.50;98.20;;;;;;4992583;28;20044;-46
2022/04/10 12:56:59;;;;;;;4.90;1.08;;;11.80;99.90;;;;;;4993065;28;20099;-48
2022/04/10 12:59:41;;;;;;;3.58;0.82;;;11.80;98.70;;;;;;4992695;28;20470;-49
2022/04/10 13:02:21;;;;;;;5.57;1.00;;;12.00;96.70;;;;;;4993080;28;20509;-46